Terminal Aerodrome Forecast
Issued by NWS Hastings, NE

Home | Current Version | Previous Version | Text Only | Print | Product List | Glossary On
Versions: 1 2 3 4 5 6 7 8 9 10 11 12 13 14 15 16 17 18 19 20 21 22 23 24 25 26 27 28 29 30
000
FTUS43 KGID 182320
TAFGRI
TAF
KGRI 182320Z 1900/1924 19012KT P6SM SCT120
     FM190300 18010KT P6SM FEW008 SCT120
     FM190700 18008KT 1 1/2SM BR SCT003 OVC008
     FM190900 17008KT 1/2SM FG OVC003
     FM191600 16006KT P6SM OVC003=

USA.gov is the U.S. government's official web portal to all federal, state and local government web resources and services.